Agadir Al Massira, Morocco
Current Conditions -  °F | °C
As of 9:00 AM on Monday 20 Oct 2014 (Local Time) from GMAG Reporting Station
Clear Clear  
Wind Chill: 25°   Ceiling: Unl
Heat Index: 25°   Visibility: 6mi
Dew Point: -2°   Wind: 14mph
Humidity: 17%   Direction: 80°E
Pressure: 29.94"   Gusts: NA
Location:  30.33°N, 9.4°W
Report Text: GMAG 200800Z 08012KT CAVOK 25/M02 Q1014 NOSIG
Loading
Personal Weather Stations






























Interactive Weather Map New forecast layout! Learn more

10-Day Weather Forecast

Advertisements
Track Severe Weather on mobile